sensor_id;sensor_type;location;lat;lon;timestamp;P1;durP1;ratioP1;P2;durP2;ratioP2
51366;SDS011;37458;49.428;8.646;2022-08-05T00:01:11;6.85;;;3.00;;
51366;SDS011;37458;49.428;8.646;2022-08-05T00:03:37;8.30;;;3.05;;
51366;SDS011;37458;49.428;8.646;2022-08-05T00:06:03;8.70;;;3.35;;
51366;SDS011;37458;49.428;8.646;2022-08-05T00:08:29;9.38;;;3.30;;
51366;SDS011;37458;49.428;8.646;2022-08-05T00:10:56;5.80;;;2.75;;
51366;SDS011;37458;49.428;8.646;2022-08-05T00:13:22;7.55;;;2.92;;
51366;SDS011;37458;49.428;8.646;2022-08-05T00:15:48;10.38;;;3.20;;
51366;SDS011;37458;49.428;8.646;2022-08-05T00:18:14;9.52;;;3.22;;
51366;SDS011;37458;49.428;8.646;2022-08-05T00:20:40;6.90;;;2.47;;
51366;SDS011;37458;49.428;8.646;2022-08-05T00:23:06;10.13;;;3.08;;
51366;SDS011;37458;49.428;8.646;2022-08-05T00:25:32;7.35;;;2.90;;
51366;SDS011;37458;49.428;8.646;2022-08-05T00:27:58;10.18;;;3.08;;
51366;SDS011;37458;49.428;8.646;2022-08-05T00:30:24;5.28;;;2.75;;
51366;SDS011;37458;49.428;8.646;2022-08-05T00:32:50;7.20;;;2.40;;
51366;SDS011;37458;49.428;8.646;2022-08-05T00:35:16;9.95;;;3.15;;
51366;SDS011;37458;49.428;8.646;2022-08-05T00:37:42;7.15;;;3.15;;
51366;SDS011;37458;49.428;8.646;2022-08-05T00:40:08;7.90;;;3.08;;
51366;SDS011;37458;49.428;8.646;2022-08-05T00:42:35;7.57;;;3.17;;
51366;SDS011;37458;49.428;8.646;2022-08-05T00:45:02;7.40;;;3.45;;
51366;SDS011;37458;49.428;8.646;2022-08-05T00:47:28;7.80;;;3.60;;
51366;SDS011;37458;49.428;8.646;2022-08-05T00:49:54;11.93;;;3.47;;
51366;SDS011;37458;49.428;8.646;2022-08-05T00:52:20;14.15;;;4.10;;
51366;SDS011;37458;49.428;8.646;2022-08-05T00:54:47;7.60;;;3.63;;
51366;SDS011;37458;49.428;8.646;2022-08-05T00:57:13;6.22;;;3.38;;
51366;SDS011;37458;49.428;8.646;2022-08-05T00:59:39;11.75;;;3.30;;
51366;SDS011;37458;49.428;8.646;2022-08-05T01:02:05;11.15;;;3.80;;
51366;SDS011;37458;49.428;8.646;2022-08-05T01:04:31;11.13;;;4.03;;
51366;SDS011;37458;49.428;8.646;2022-08-05T01:06:57;8.18;;;3.70;;
51366;SDS011;37458;49.428;8.646;2022-08-05T01:09:23;5.85;;;3.40;;
51366;SDS011;37458;49.428;8.646;2022-08-05T01:11:49;11.32;;;4.10;;
51366;SDS011;37458;49.428;8.646;2022-08-05T01:14:19;14.45;;;3.85;;
51366;SDS011;37458;49.428;8.646;2022-08-05T01:16:54;8.10;;;4.38;;
51366;SDS011;37458;49.428;8.646;2022-08-05T01:29:39;9.85;;;4.38;;
51366;SDS011;37458;49.428;8.646;2022-08-05T01:32:08;7.18;;;4.45;;
51366;SDS011;37458;49.428;8.646;2022-08-05T01:34:38;7.10;;;4.30;;
51366;SDS011;37458;49.428;8.646;2022-08-05T01:37:09;7.72;;;3.92;;
51366;SDS011;37458;49.428;8.646;2022-08-05T01:39:37;9.32;;;4.35;;
51366;SDS011;37458;49.428;8.646;2022-08-05T01:42:04;6.65;;;4.32;;
51366;SDS011;37458;49.428;8.646;2022-08-05T01:44:31;9.60;;;3.80;;
51366;SDS011;37458;49.428;8.646;2022-08-05T01:46:58;6.07;;;3.90;;
51366;SDS011;37458;49.428;8.646;2022-08-05T01:49:25;5.63;;;4.10;;
51366;SDS011;37458;49.428;8.646;2022-08-05T01:51:53;7.65;;;4.82;;
51366;SDS011;37458;49.428;8.646;2022-08-05T01:54:20;9.10;;;4.35;;
51366;SDS011;37458;49.428;8.646;2022-08-05T01:56:49;6.65;;;4.30;;
51366;SDS011;37458;49.428;8.646;2022-08-05T01:59:16;9.60;;;4.30;;
51366;SDS011;37458;49.428;8.646;2022-08-05T02:01:43;5.20;;;4.30;;
51366;SDS011;37458;49.428;8.646;2022-08-05T02:04:11;11.52;;;4.07;;
51366;SDS011;37458;49.428;8.646;2022-08-05T02:06:39;9.15;;;4.30;;
51366;SDS011;37458;49.428;8.646;2022-08-05T02:09:05;8.93;;;4.18;;
51366;SDS011;37458;49.428;8.646;2022-08-05T02:11:36;11.20;;;4.40;;
51366;SDS011;37458;49.428;8.646;2022-08-05T02:14:07;9.07;;;4.20;;
51366;SDS011;37458;49.428;8.646;2022-08-05T02:16:38;8.15;;;4.18;;
51366;SDS011;37458;49.428;8.646;2022-08-05T02:21:53;11.20;;;3.85;;
51366;SDS011;37458;49.428;8.646;2022-08-05T02:24:22;8.88;;;4.28;;
51366;SDS011;37458;49.428;8.646;2022-08-05T02:26:51;6.88;;;3.45;;
51366;SDS011;37458;49.428;8.646;2022-08-05T02:29:20;7.97;;;3.58;;
51366;SDS011;37458;49.428;8.646;2022-08-05T02:31:47;9.68;;;3.63;;
51366;SDS011;37458;49.428;8.646;2022-08-05T02:34:13;8.10;;;4.05;;
51366;SDS011;37458;49.428;8.646;2022-08-05T02:36:41;5.43;;;3.60;;
51366;SDS011;37458;49.428;8.646;2022-08-05T02:39:08;10.25;;;4.07;;
51366;SDS011;37458;49.428;8.646;2022-08-05T02:41:34;6.60;;;3.35;;
51366;SDS011;37458;49.428;8.646;2022-08-05T02:44:02;10.27;;;3.92;;
51366;SDS011;37458;49.428;8.646;2022-08-05T02:46:28;8.52;;;4.20;;
51366;SDS011;37458;49.428;8.646;2022-08-05T02:48:54;9.93;;;4.75;;
51366;SDS011;37458;49.428;8.646;2022-08-05T02:51:21;9.75;;;4.82;;
51366;SDS011;37458;49.428;8.646;2022-08-05T02:53:47;13.05;;;5.53;;
51366;SDS011;37458;49.428;8.646;2022-08-05T02:56:14;9.27;;;5.07;;
51366;SDS011;37458;49.428;8.646;2022-08-05T02:58:41;12.65;;;4.50;;
51366;SDS011;37458;49.428;8.646;2022-08-05T03:01:08;12.13;;;4.47;;
51366;SDS011;37458;49.428;8.646;2022-08-05T03:03:38;14.05;;;4.60;;
51366;SDS011;37458;49.428;8.646;2022-08-05T03:06:04;8.75;;;4.05;;
51366;SDS011;37458;49.428;8.646;2022-08-05T03:08:31;7.20;;;4.32;;
51366;SDS011;37458;49.428;8.646;2022-08-05T03:10:57;7.70;;;4.38;;
51366;SDS011;37458;49.428;8.646;2022-08-05T03:13:23;7.93;;;4.60;;
51366;SDS011;37458;49.428;8.646;2022-08-05T03:15:49;8.52;;;4.10;;
51366;SDS011;37458;49.428;8.646;2022-08-05T03:18:15;7.68;;;4.30;;
51366;SDS011;37458;49.428;8.646;2022-08-05T03:20:41;7.45;;;4.20;;
51366;SDS011;37458;49.428;8.646;2022-08-05T03:23:08;8.93;;;4.57;;
51366;SDS011;37458;49.428;8.646;2022-08-05T03:25:35;9.10;;;4.20;;
51366;SDS011;37458;49.428;8.646;2022-08-05T03:28:02;7.05;;;4.25;;
51366;SDS011;37458;49.428;8.646;2022-08-05T03:30:29;7.35;;;3.85;;
51366;SDS011;37458;49.428;8.646;2022-08-05T03:32:59;9.20;;;4.25;;
51366;SDS011;37458;49.428;8.646;2022-08-05T03:35:28;5.85;;;4.57;;
51366;SDS011;37458;49.428;8.646;2022-08-05T03:37:55;7.85;;;4.78;;
51366;SDS011;37458;49.428;8.646;2022-08-05T03:40:21;8.13;;;4.13;;
51366;SDS011;37458;49.428;8.646;2022-08-05T03:42:47;5.13;;;4.10;;
51366;SDS011;37458;49.428;8.646;2022-08-05T03:45:13;5.97;;;4.30;;
51366;SDS011;37458;49.428;8.646;2022-08-05T03:47:40;15.57;;;4.95;;
51366;SDS011;37458;49.428;8.646;2022-08-05T03:50:06;9.13;;;4.72;;
51366;SDS011;37458;49.428;8.646;2022-08-05T03:52:33;8.60;;;4.70;;
51366;SDS011;37458;49.428;8.646;2022-08-05T03:55:04;14.48;;;4.75;;
51366;SDS011;37458;49.428;8.646;2022-08-05T03:57:34;10.25;;;5.10;;
51366;SDS011;37458;49.428;8.646;2022-08-05T04:00:03;9.43;;;5.07;;
51366;SDS011;37458;49.428;8.646;2022-08-05T04:02:30;7.70;;;4.63;;
51366;SDS011;37458;49.428;8.646;2022-08-05T04:04:57;7.90;;;5.18;;
51366;SDS011;37458;49.428;8.646;2022-08-05T04:07:23;12.95;;;5.35;;
51366;SDS011;37458;49.428;8.646;2022-08-05T04:09:50;9.50;;;4.53;;
51366;SDS011;37458;49.428;8.646;2022-08-05T04:12:17;14.07;;;5.45;;
51366;SDS011;37458;49.428;8.646;2022-08-05T04:14:43;9.65;;;4.80;;
51366;SDS011;37458;49.428;8.646;2022-08-05T04:17:09;6.35;;;4.85;;
51366;SDS011;37458;49.428;8.646;2022-08-05T04:19:45;9.50;;;4.93;;
51366;SDS011;37458;49.428;8.646;2022-08-05T04:22:11;10.25;;;4.88;;
51366;SDS011;37458;49.428;8.646;2022-08-05T04:24:38;11.38;;;5.43;;
51366;SDS011;37458;49.428;8.646;2022-08-05T04:27:04;10.95;;;5.10;;
51366;SDS011;37458;49.428;8.646;2022-08-05T04:29:30;9.77;;;4.72;;
51366;SDS011;37458;49.428;8.646;2022-08-05T04:31:56;7.55;;;4.40;;
51366;SDS011;37458;49.428;8.646;2022-08-05T04:34:22;8.65;;;4.13;;
51366;SDS011;37458;49.428;8.646;2022-08-05T04:36:48;8.07;;;4.38;;
51366;SDS011;37458;49.428;8.646;2022-08-05T04:39:14;6.28;;;3.63;;
51366;SDS011;37458;49.428;8.646;2022-08-05T04:41:40;10.35;;;4.53;;
51366;SDS011;37458;49.428;8.646;2022-08-05T04:44:06;3.97;;;3.42;;
51366;SDS011;37458;49.428;8.646;2022-08-05T04:46:32;6.55;;;3.38;;
51366;SDS011;37458;49.428;8.646;2022-08-05T04:48:58;7.35;;;3.42;;
51366;SDS011;37458;49.428;8.646;2022-08-05T04:51:24;7.15;;;3.45;;
51366;SDS011;37458;49.428;8.646;2022-08-05T04:53:50;6.93;;;3.42;;
51366;SDS011;37458;49.428;8.646;2022-08-05T04:56:16;4.53;;;3.63;;
51366;SDS011;37458;49.428;8.646;2022-08-05T04:58:42;5.15;;;3.35;;
51366;SDS011;37458;49.428;8.646;2022-08-05T05:01:08;6.20;;;3.55;;
51366;SDS011;37458;49.428;8.646;2022-08-05T05:03:34;7.93;;;3.93;;
51366;SDS011;37458;49.428;8.646;2022-08-05T05:06:00;6.43;;;3.33;;
51366;SDS011;37458;49.428;8.646;2022-08-05T05:08:26;8.87;;;2.80;;
51366;SDS011;37458;49.428;8.646;2022-08-05T05:10:52;5.67;;;3.00;;
51366;SDS011;37458;49.428;8.646;2022-08-05T05:13:20;5.20;;;3.00;;
51366;SDS011;37458;49.428;8.646;2022-08-05T05:15:46;6.97;;;2.92;;
51366;SDS011;37458;49.428;8.646;2022-08-05T05:18:12;4.78;;;2.60;;
51366;SDS011;37458;49.428;8.646;2022-08-05T05:20:41;5.30;;;2.50;;
51366;SDS011;37458;49.428;8.646;2022-08-05T05:23:07;3.77;;;2.43;;
51366;SDS011;37458;49.428;8.646;2022-08-05T05:25:33;4.00;;;2.70;;
51366;SDS011;37458;49.428;8.646;2022-08-05T05:27:59;3.20;;;2.53;;
51366;SDS011;37458;49.428;8.646;2022-08-05T05:30:25;4.50;;;2.80;;
51366;SDS011;37458;49.428;8.646;2022-08-05T05:32:51;3.22;;;2.70;;
51366;SDS011;37458;49.428;8.646;2022-08-05T05:35:17;4.68;;;2.67;;
51366;SDS011;37458;49.428;8.646;2022-08-05T05:37:52;4.40;;;3.03;;
51366;SDS011;37458;49.428;8.646;2022-08-05T05:40:19;4.47;;;2.60;;
51366;SDS011;37458;49.428;8.646;2022-08-05T05:42:46;3.13;;;2.60;;
51366;SDS011;37458;49.428;8.646;2022-08-05T05:45:12;4.25;;;3.13;;
51366;SDS011;37458;49.428;8.646;2022-08-05T05:47:38;7.38;;;2.58;;
51366;SDS011;37458;49.428;8.646;2022-08-05T05:50:05;6.95;;;2.70;;
51366;SDS011;37458;49.428;8.646;2022-08-05T05:52:31;6.30;;;2.78;;
51366;SDS011;37458;49.428;8.646;2022-08-05T05:54:58;2.50;;;2.17;;
51366;SDS011;37458;49.428;8.646;2022-08-05T05:57:24;3.13;;;2.40;;
51366;SDS011;37458;49.428;8.646;2022-08-05T05:59:50;2.83;;;2.50;;
51366;SDS011;37458;49.428;8.646;2022-08-05T06:02:16;5.35;;;2.85;;
51366;SDS011;37458;49.428;8.646;2022-08-05T06:04:42;4.93;;;2.60;;
51366;SDS011;37458;49.428;8.646;2022-08-05T06:07:08;4.43;;;2.60;;
51366;SDS011;37458;49.428;8.646;2022-08-05T06:09:34;4.88;;;2.55;;
51366;SDS011;37458;49.428;8.646;2022-08-05T06:12:00;4.22;;;2.92;;
51366;SDS011;37458;49.428;8.646;2022-08-05T06:14:26;4.05;;;2.80;;
51366;SDS011;37458;49.428;8.646;2022-08-05T06:16:52;5.50;;;2.90;;
51366;SDS011;37458;49.428;8.646;2022-08-05T06:19:18;6.70;;;3.08;;
51366;SDS011;37458;49.428;8.646;2022-08-05T06:21:44;4.07;;;3.08;;
51366;SDS011;37458;49.428;8.646;2022-08-05T06:24:11;6.57;;;2.70;;
51366;SDS011;37458;49.428;8.646;2022-08-05T06:26:37;3.13;;;2.28;;
51366;SDS011;37458;49.428;8.646;2022-08-05T06:29:03;5.65;;;2.95;;
51366;SDS011;37458;49.428;8.646;2022-08-05T06:31:29;7.70;;;2.75;;
51366;SDS011;37458;49.428;8.646;2022-08-05T06:33:55;4.80;;;2.60;;
51366;SDS011;37458;49.428;8.646;2022-08-05T06:36:21;3.75;;;2.85;;
51366;SDS011;37458;49.428;8.646;2022-08-05T06:38:47;6.10;;;2.92;;
51366;SDS011;37458;49.428;8.646;2022-08-05T06:41:17;6.75;;;3.10;;
51366;SDS011;37458;49.428;8.646;2022-08-05T06:43:43;4.22;;;2.90;;
51366;SDS011;37458;49.428;8.646;2022-08-05T06:46:09;3.15;;;2.85;;
51366;SDS011;37458;49.428;8.646;2022-08-05T06:48:35;5.13;;;2.78;;
51366;SDS011;37458;49.428;8.646;2022-08-05T06:51:02;4.57;;;2.92;;
51366;SDS011;37458;49.428;8.646;2022-08-05T06:53:28;2.92;;;2.70;;
51366;SDS011;37458;49.428;8.646;2022-08-05T06:55:58;4.40;;;3.03;;
51366;SDS011;37458;49.428;8.646;2022-08-05T06:58:25;4.28;;;2.90;;
51366;SDS011;37458;49.428;8.646;2022-08-05T07:00:51;4.45;;;2.88;;
51366;SDS011;37458;49.428;8.646;2022-08-05T07:03:17;4.15;;;2.88;;
51366;SDS011;37458;49.428;8.646;2022-08-05T07:05:44;3.45;;;2.67;;
51366;SDS011;37458;49.428;8.646;2022-08-05T07:08:10;3.72;;;3.40;;
51366;SDS011;37458;49.428;8.646;2022-08-05T07:10:36;4.97;;;3.20;;
51366;SDS011;37458;49.428;8.646;2022-08-05T07:13:02;3.90;;;3.28;;
51366;SDS011;37458;49.428;8.646;2022-08-05T07:15:47;6.22;;;3.40;;
51366;SDS011;37458;49.428;8.646;2022-08-05T07:18:31;3.45;;;3.15;;
51366;SDS011;37458;49.428;8.646;2022-08-05T07:20:57;4.05;;;3.15;;
51366;SDS011;37458;49.428;8.646;2022-08-05T07:23:23;4.53;;;3.15;;
51366;SDS011;37458;49.428;8.646;2022-08-05T07:25:49;3.30;;;3.00;;
51366;SDS011;37458;49.428;8.646;2022-08-05T07:28:15;4.57;;;3.40;;
51366;SDS011;37458;49.428;8.646;2022-08-05T07:30:41;4.20;;;3.83;;
51366;SDS011;37458;49.428;8.646;2022-08-05T07:33:08;7.90;;;3.90;;
51366;SDS011;37458;49.428;8.646;2022-08-05T07:35:34;5.35;;;3.70;;
51366;SDS011;37458;49.428;8.646;2022-08-05T07:38:00;4.68;;;3.40;;
51366;SDS011;37458;49.428;8.646;2022-08-05T07:40:26;3.70;;;2.72;;
51366;SDS011;37458;49.428;8.646;2022-08-05T07:42:52;5.07;;;2.72;;
51366;SDS011;37458;49.428;8.646;2022-08-05T07:45:18;3.00;;;2.40;;
51366;SDS011;37458;49.428;8.646;2022-08-05T07:47:44;5.30;;;2.63;;
51366;SDS011;37458;49.428;8.646;2022-08-05T07:50:10;3.17;;;2.40;;
51366;SDS011;37458;49.428;8.646;2022-08-05T07:52:37;4.53;;;2.50;;
51366;SDS011;37458;49.428;8.646;2022-08-05T07:55:04;3.25;;;2.65;;
51366;SDS011;37458;49.428;8.646;2022-08-05T07:57:30;4.13;;;2.55;;
51366;SDS011;37458;49.428;8.646;2022-08-05T07:59:56;2.55;;;2.35;;
51366;SDS011;37458;49.428;8.646;2022-08-05T08:02:23;2.78;;;2.58;;
51366;SDS011;37458;49.428;8.646;2022-08-05T08:04:49;3.20;;;2.65;;
51366;SDS011;37458;49.428;8.646;2022-08-05T08:07:16;3.47;;;2.50;;
51366;SDS011;37458;49.428;8.646;2022-08-05T08:09:42;3.70;;;2.33;;
51366;SDS011;37458;49.428;8.646;2022-08-05T08:12:08;2.38;;;2.17;;
51366;SDS011;37458;49.428;8.646;2022-08-05T08:14:34;2.45;;;2.22;;
51366;SDS011;37458;49.428;8.646;2022-08-05T08:17:00;3.08;;;2.22;;
51366;SDS011;37458;49.428;8.646;2022-08-05T08:19:26;4.15;;;2.40;;
51366;SDS011;37458;49.428;8.646;2022-08-05T08:21:52;3.80;;;2.47;;
51366;SDS011;37458;49.428;8.646;2022-08-05T08:24:18;5.03;;;2.45;;
51366;SDS011;37458;49.428;8.646;2022-08-05T08:26:44;5.28;;;2.70;;
51366;SDS011;37458;49.428;8.646;2022-08-05T08:29:10;2.78;;;2.47;;
51366;SDS011;37458;49.428;8.646;2022-08-05T08:31:36;4.03;;;2.47;;
51366;SDS011;37458;49.428;8.646;2022-08-05T08:34:02;4.93;;;2.90;;
51366;SDS011;37458;49.428;8.646;2022-08-05T08:36:28;5.30;;;2.60;;
51366;SDS011;37458;49.428;8.646;2022-08-05T08:38:54;3.92;;;2.60;;
51366;SDS011;37458;49.428;8.646;2022-08-05T08:41:20;4.43;;;2.65;;
51366;SDS011;37458;49.428;8.646;2022-08-05T08:43:47;5.90;;;2.95;;
51366;SDS011;37458;49.428;8.646;2022-08-05T08:46:14;3.58;;;2.58;;
51366;SDS011;37458;49.428;8.646;2022-08-05T08:48:41;3.95;;;2.80;;
51366;SDS011;37458;49.428;8.646;2022-08-05T08:51:11;4.72;;;2.70;;
51366;SDS011;37458;49.428;8.646;2022-08-05T08:53:37;5.50;;;2.70;;
51366;SDS011;37458;49.428;8.646;2022-08-05T08:56:05;5.93;;;2.53;;
51366;SDS011;37458;49.428;8.646;2022-08-05T08:58:31;5.78;;;2.78;;
51366;SDS011;37458;49.428;8.646;2022-08-05T09:00:57;6.07;;;2.30;;
51366;SDS011;37458;49.428;8.646;2022-08-05T09:03:23;4.90;;;2.78;;
51366;SDS011;37458;49.428;8.646;2022-08-05T09:05:49;3.60;;;2.60;;
51366;SDS011;37458;49.428;8.646;2022-08-05T09:08:15;4.95;;;2.70;;
51366;SDS011;37458;49.428;8.646;2022-08-05T09:10:43;4.90;;;2.63;;
51366;SDS011;37458;49.428;8.646;2022-08-05T09:13:15;2.72;;;2.50;;
51366;SDS011;37458;49.428;8.646;2022-08-05T09:15:43;4.97;;;2.70;;
51366;SDS011;37458;49.428;8.646;2022-08-05T09:18:09;5.05;;;2.70;;
51366;SDS011;37458;49.428;8.646;2022-08-05T09:20:36;3.88;;;3.00;;
51366;SDS011;37458;49.428;8.646;2022-08-05T09:25:38;3.35;;;2.50;;
51366;SDS011;37458;49.428;8.646;2022-08-05T09:28:11;3.03;;;2.72;;
51366;SDS011;37458;49.428;8.646;2022-08-05T09:30:41;3.08;;;2.58;;
51366;SDS011;37458;49.428;8.646;2022-08-05T09:33:07;2.97;;;2.70;;
51366;SDS011;37458;49.428;8.646;2022-08-05T09:35:33;3.17;;;2.60;;
51366;SDS011;37458;49.428;8.646;2022-08-05T09:37:59;3.30;;;2.60;;
51366;SDS011;37458;49.428;8.646;2022-08-05T09:40:29;3.10;;;2.50;;
51366;SDS011;37458;49.428;8.646;2022-08-05T09:42:55;4.85;;;3.00;;
51366;SDS011;37458;49.428;8.646;2022-08-05T09:45:28;3.20;;;2.83;;
51366;SDS011;37458;49.428;8.646;2022-08-05T09:47:58;3.90;;;3.10;;
51366;SDS011;37458;49.428;8.646;2022-08-05T09:50:37;3.70;;;3.20;;
51366;SDS011;37458;49.428;8.646;2022-08-05T09:53:03;4.88;;;3.30;;
51366;SDS011;37458;49.428;8.646;2022-08-05T09:55:34;3.60;;;3.30;;
51366;SDS011;37458;49.428;8.646;2022-08-05T09:58:08;3.67;;;3.47;;
51366;SDS011;37458;49.428;8.646;2022-08-05T10:00:34;4.70;;;3.50;;
51366;SDS011;37458;49.428;8.646;2022-08-05T10:03:00;3.88;;;3.53;;
51366;SDS011;37458;49.428;8.646;2022-08-05T10:05:33;4.03;;;3.70;;
51366;SDS011;37458;49.428;8.646;2022-08-05T10:08:01;5.00;;;4.60;;
51366;SDS011;37458;49.428;8.646;2022-08-05T10:10:31;4.63;;;4.28;;
51366;SDS011;37458;49.428;8.646;2022-08-05T10:12:59;5.30;;;4.80;;
51366;SDS011;37458;49.428;8.646;2022-08-05T10:15:28;4.55;;;4.35;;
51366;SDS011;37458;49.428;8.646;2022-08-05T10:20:31;4.80;;;4.40;;
51366;SDS011;37458;49.428;8.646;2022-08-05T10:22:57;4.70;;;4.50;;
51366;SDS011;37458;49.428;8.646;2022-08-05T10:25:24;5.55;;;5.07;;
51366;SDS011;37458;49.428;8.646;2022-08-05T10:27:50;5.15;;;4.50;;
51366;SDS011;37458;49.428;8.646;2022-08-05T10:30:17;5.03;;;4.63;;
51366;SDS011;37458;49.428;8.646;2022-08-05T10:32:44;5.85;;;4.85;;
51366;SDS011;37458;49.428;8.646;2022-08-05T10:35:11;4.57;;;3.97;;
51366;SDS011;37458;49.428;8.646;2022-08-05T10:37:37;4.63;;;4.32;;
51366;SDS011;37458;49.428;8.646;2022-08-05T10:40:03;5.35;;;4.45;;
51366;SDS011;37458;49.428;8.646;2022-08-05T10:42:32;4.82;;;4.43;;
51366;SDS011;37458;49.428;8.646;2022-08-05T10:45:03;4.90;;;4.60;;
51366;SDS011;37458;49.428;8.646;2022-08-05T10:47:32;5.50;;;4.40;;
51366;SDS011;37458;49.428;8.646;2022-08-05T10:52:59;5.20;;;4.80;;
51366;SDS011;37458;49.428;8.646;2022-08-05T10:55:21;5.53;;;5.15;;
51366;SDS011;37458;49.428;8.646;2022-08-05T10:57:48;5.20;;;4.90;;
51366;SDS011;37458;49.428;8.646;2022-08-05T11:00:31;5.53;;;5.13;;
51366;SDS011;37458;49.428;8.646;2022-08-05T11:05:35;5.43;;;5.03;;
51366;SDS011;37458;49.428;8.646;2022-08-05T11:08:03;5.20;;;4.80;;
51366;SDS011;37458;49.428;8.646;2022-08-05T11:10:29;4.97;;;4.53;;
51366;SDS011;37458;49.428;8.646;2022-08-05T11:12:56;4.82;;;4.53;;
51366;SDS011;37458;49.428;8.646;2022-08-05T11:15:26;3.90;;;3.60;;
51366;SDS011;37458;49.428;8.646;2022-08-05T11:23:24;4.03;;;3.72;;
51366;SDS011;37458;49.428;8.646;2022-08-05T11:28:52;4.75;;;4.10;;
51366;SDS011;37458;49.428;8.646;2022-08-05T11:31:19;6.82;;;4.72;;
51366;SDS011;37458;49.428;8.646;2022-08-05T11:36:13;4.70;;;4.40;;
51366;SDS011;37458;49.428;8.646;2022-08-05T11:43:33;5.10;;;4.57;;
51366;SDS011;37458;49.428;8.646;2022-08-05T11:45:59;4.63;;;4.30;;
51366;SDS011;37458;49.428;8.646;2022-08-05T11:48:26;5.00;;;4.60;;
51366;SDS011;37458;49.428;8.646;2022-08-05T11:50:53;4.40;;;4.10;;
51366;SDS011;37458;49.428;8.646;2022-08-05T11:53:20;4.55;;;4.15;;
51366;SDS011;37458;49.428;8.646;2022-08-05T11:55:56;4.93;;;4.53;;
51366;SDS011;37458;49.428;8.646;2022-08-05T11:58:36;5.32;;;3.88;;
51366;SDS011;37458;49.428;8.646;2022-08-05T12:01:06;5.13;;;3.85;;
51366;SDS011;37458;49.428;8.646;2022-08-05T12:03:45;5.95;;;4.07;;
51366;SDS011;37458;49.428;8.646;2022-08-05T12:06:12;4.18;;;3.78;;
51366;SDS011;37458;49.428;8.646;2022-08-05T12:08:40;6.47;;;3.95;;
51366;SDS011;37458;49.428;8.646;2022-08-05T12:11:07;4.43;;;3.92;;
51366;SDS011;37458;49.428;8.646;2022-08-05T12:13:33;4.43;;;4.03;;
51366;SDS011;37458;49.428;8.646;2022-08-05T12:15:59;5.20;;;3.90;;
51366;SDS011;37458;49.428;8.646;2022-08-05T12:18:26;4.28;;;3.85;;
51366;SDS011;37458;49.428;8.646;2022-08-05T12:20:53;3.42;;;3.22;;
51366;SDS011;37458;49.428;8.646;2022-08-05T12:23:19;7.38;;;3.40;;
51366;SDS011;37458;49.428;8.646;2022-08-05T12:25:49;5.13;;;3.80;;
51366;SDS011;37458;49.428;8.646;2022-08-05T12:28:34;4.00;;;3.70;;
51366;SDS011;37458;49.428;8.646;2022-08-05T12:31:01;3.80;;;3.38;;
51366;SDS011;37458;49.428;8.646;2022-08-05T12:33:27;4.50;;;3.75;;
51366;SDS011;37458;49.428;8.646;2022-08-05T12:35:54;4.75;;;3.55;;
51366;SDS011;37458;49.428;8.646;2022-08-05T12:38:20;4.03;;;3.60;;
51366;SDS011;37458;49.428;8.646;2022-08-05T12:40:47;4.47;;;3.63;;
51366;SDS011;37458;49.428;8.646;2022-08-05T12:43:13;4.43;;;3.28;;
51366;SDS011;37458;49.428;8.646;2022-08-05T12:45:52;3.33;;;3.05;;
51366;SDS011;37458;49.428;8.646;2022-08-05T12:48:18;3.40;;;3.20;;
51366;SDS011;37458;49.428;8.646;2022-08-05T12:51:07;3.72;;;3.33;;
51366;SDS011;37458;49.428;8.646;2022-08-05T12:53:30;3.50;;;3.20;;
51366;SDS011;37458;49.428;8.646;2022-08-05T12:55:56;4.32;;;3.25;;
51366;SDS011;37458;49.428;8.646;2022-08-05T12:58:22;3.33;;;3.03;;
51366;SDS011;37458;49.428;8.646;2022-08-05T13:00:48;3.38;;;3.15;;
51366;SDS011;37458;49.428;8.646;2022-08-05T13:03:15;3.63;;;3.33;;
51366;SDS011;37458;49.428;8.646;2022-08-05T13:05:41;3.10;;;2.90;;
51366;SDS011;37458;49.428;8.646;2022-08-05T13:08:07;3.80;;;3.08;;
51366;SDS011;37458;49.428;8.646;2022-08-05T13:10:33;3.08;;;2.78;;
51366;SDS011;37458;49.428;8.646;2022-08-05T13:13:06;3.50;;;2.90;;
51366;SDS011;37458;49.428;8.646;2022-08-05T13:15:32;4.13;;;2.90;;
51366;SDS011;37458;49.428;8.646;2022-08-05T13:17:58;3.63;;;2.70;;
51366;SDS011;37458;49.428;8.646;2022-08-05T13:20:32;3.42;;;3.13;;
51366;SDS011;37458;49.428;8.646;2022-08-05T13:22:58;4.20;;;3.20;;
51366;SDS011;37458;49.428;8.646;2022-08-05T13:25:24;3.45;;;3.15;;
51366;SDS011;37458;49.428;8.646;2022-08-05T13:27:51;4.57;;;3.35;;
51366;SDS011;37458;49.428;8.646;2022-08-05T13:30:18;3.92;;;2.95;;
51366;SDS011;37458;49.428;8.646;2022-08-05T13:32:45;3.58;;;3.28;;
51366;SDS011;37458;49.428;8.646;2022-08-05T13:35:12;5.57;;;3.22;;
51366;SDS011;37458;49.428;8.646;2022-08-05T13:37:39;6.25;;;3.67;;
51366;SDS011;37458;49.428;8.646;2022-08-05T13:40:05;3.50;;;3.20;;
51366;SDS011;37458;49.428;8.646;2022-08-05T13:42:31;5.53;;;3.25;;
51366;SDS011;37458;49.428;8.646;2022-08-05T13:44:57;3.55;;;3.25;;
51366;SDS011;37458;49.428;8.646;2022-08-05T13:47:23;5.38;;;3.25;;
51366;SDS011;37458;49.428;8.646;2022-08-05T13:49:50;3.53;;;3.22;;
51366;SDS011;37458;49.428;8.646;2022-08-05T13:52:17;3.38;;;3.08;;
51366;SDS011;37458;49.428;8.646;2022-08-05T13:54:43;4.80;;;3.50;;
51366;SDS011;37458;49.428;8.646;2022-08-05T13:57:10;3.35;;;3.08;;
51366;SDS011;37458;49.428;8.646;2022-08-05T13:59:37;3.70;;;3.33;;
51366;SDS011;37458;49.428;8.646;2022-08-05T14:02:04;3.50;;;3.22;;
51366;SDS011;37458;49.428;8.646;2022-08-05T14:04:31;3.67;;;3.38;;
51366;SDS011;37458;49.428;8.646;2022-08-05T14:07:16;5.90;;;3.65;;
51366;SDS011;37458;49.428;8.646;2022-08-05T14:09:42;3.65;;;3.30;;
51366;SDS011;37458;49.428;8.646;2022-08-05T14:12:08;3.60;;;3.30;;
51366;SDS011;37458;49.428;8.646;2022-08-05T14:14:34;3.67;;;3.38;;
51366;SDS011;37458;49.428;8.646;2022-08-05T14:17:00;3.65;;;3.35;;
51366;SDS011;37458;49.428;8.646;2022-08-05T14:19:26;3.78;;;3.50;;
51366;SDS011;37458;49.428;8.646;2022-08-05T14:21:52;4.25;;;3.40;;
51366;SDS011;37458;49.428;8.646;2022-08-05T14:24:18;3.40;;;3.10;;
51366;SDS011;37458;49.428;8.646;2022-08-05T14:26:44;4.57;;;3.55;;
51366;SDS011;37458;49.428;8.646;2022-08-05T14:29:10;4.57;;;3.33;;
51366;SDS011;37458;49.428;8.646;2022-08-05T14:31:36;3.20;;;3.00;;
51366;SDS011;37458;49.428;8.646;2022-08-05T14:34:02;3.40;;;3.20;;
51366;SDS011;37458;49.428;8.646;2022-08-05T14:36:28;3.40;;;3.10;;
51366;SDS011;37458;49.428;8.646;2022-08-05T14:38:54;3.40;;;3.10;;
51366;SDS011;37458;49.428;8.646;2022-08-05T14:41:20;2.85;;;2.65;;
51366;SDS011;37458;49.428;8.646;2022-08-05T14:43:46;3.08;;;2.88;;
51366;SDS011;37458;49.428;8.646;2022-08-05T14:46:15;3.88;;;2.92;;
51366;SDS011;37458;49.428;8.646;2022-08-05T14:48:41;3.45;;;2.90;;
51366;SDS011;37458;49.428;8.646;2022-08-05T14:51:07;3.20;;;2.90;;
51366;SDS011;37458;49.428;8.646;2022-08-05T14:53:33;6.25;;;3.00;;
51366;SDS011;37458;49.428;8.646;2022-08-05T14:55:59;3.03;;;2.70;;
51366;SDS011;37458;49.428;8.646;2022-08-05T14:58:25;3.90;;;2.78;;
51366;SDS011;37458;49.428;8.646;2022-08-05T15:00:51;4.80;;;2.80;;
51366;SDS011;37458;49.428;8.646;2022-08-05T15:03:17;3.20;;;2.58;;
51366;SDS011;37458;49.428;8.646;2022-08-05T15:05:43;3.88;;;2.90;;
51366;SDS011;37458;49.428;8.646;2022-08-05T15:08:09;3.45;;;2.60;;
51366;SDS011;37458;49.428;8.646;2022-08-05T15:10:35;4.57;;;2.80;;
51366;SDS011;37458;49.428;8.646;2022-08-05T15:13:00;3.60;;;2.85;;
51366;SDS011;37458;49.428;8.646;2022-08-05T15:15:28;3.05;;;2.85;;
51366;SDS011;37458;49.428;8.646;2022-08-05T15:17:54;5.60;;;3.13;;
51366;SDS011;37458;49.428;8.646;2022-08-05T15:20:20;3.05;;;2.85;;
51366;SDS011;37458;49.428;8.646;2022-08-05T15:22:47;3.60;;;2.97;;
51366;SDS011;37458;49.428;8.646;2022-08-05T15:25:13;5.13;;;3.28;;